Terminal Aerodrome Forecast
Issued by NWS North Platte, NE

Home | Current Version | Previous Version | Graphics & Text | Print | Product List | Glossary On
Versions: 1 2 3 4 5 6 7 8 9 10 11 12 13 14 15 16 17 18 19 20
000
FTUS43 KLBF 252300
TAFVTN
TAF
KVTN 252324Z 2600/2624 36016G24KT 2SM -SN BR BKN010
      TEMPO 2600/2604 1SM -SN BR OVC007
     FM260400 36016G24KT 2SM -SN OVC007
     FM261200 36010KT 5SM -SN BR OVC009
     FM261800 33010KT P6SM OVC015=

USA.gov is the U.S. government's official web portal to all federal, state and local government web resources and services.